CheckWX is a tool to help pilots better visualize weather data.  It is not intended as a substitute for an official pre-flight weather briefing.

03:44:22 UTC

KBHB TAF
Hancock County-Bar Harbor Airport
Bar Harbor, Maine, USA
KBHB 270218Z 2702/2724 VRB03KT P6SM BCFG BKN002 FM270400 32007KT P6SM SCT002 FM271000 35007KT P6SM FEW060 BKN120 FM272300 34004KT P6SM SKC

May-27@
02:00 UTC

May-27 @ 02:00 UTC

May-27@
04:00 UTC

May-27 @ 04:00 UTC

KBHB 270218Z 2702/2724 VRB03KT P6SM BCFG BKN002
Wind
  • Variable at 3 KTS
Conditions
Patches of Fog
Cloud Levels
  • Broken at 200' AGL

May-27@
04:00 UTC

May-27 @ 04:00 UTC

May-27@
10:00 UTC

May-27 @ 10:00 UTC

FM270400 32007KT P6SM SCT002

From

From Standard forecast or significant change

Wind
  • 320° at 7 KTS
Cloud Levels
  • Scattered at 200' AGL

May-27@
10:00 UTC

May-27 @ 10:00 UTC

May-27@
23:00 UTC

May-27 @ 23:00 UTC

FM271000 35007KT P6SM FEW060 BKN120

From

From Standard forecast or significant change

Wind
  • 350° at 7 KTS
Cloud Levels
  • Few at 6,000' AGL
  • Broken at 12,000' AGL

May-27@
23:00 UTC

May-27 @ 23:00 UTC

May-28@
00:00 UTC

May-28 @ 00:00 UTC

FM272300 34004KT P6SM SKC

From

From Standard forecast or significant change

Wind
  • 340° at 4 KTS
Cloud Levels
  • Clear skies